createdAt,value
2018-08-17T00:00:48.738Z,9.50
2018-08-17T00:03:17.902Z,9.93
2018-08-17T00:05:46.934Z,10.60
2018-08-17T00:08:16.175Z,9.40
2018-08-17T00:10:45.168Z,9.60
2018-08-17T00:13:14.468Z,8.57
2018-08-17T00:15:43.724Z,8.77
2018-08-17T00:18:12.957Z,8.40
2018-08-17T00:20:42.117Z,8.83
2018-08-17T00:23:11.061Z,8.97
2018-08-17T00:25:39.998Z,8.30
2018-08-17T00:28:09.068Z,8.40
2018-08-17T00:30:38.131Z,7.17
2018-08-17T00:33:07.523Z,7.60
2018-08-17T00:35:36.672Z,7.80
2018-08-17T00:38:06.102Z,7.43
2018-08-17T00:40:35.402Z,9.57
2018-08-17T00:43:04.752Z,11.17
2018-08-17T00:45:33.997Z,11.70
2018-08-17T00:48:03.310Z,11.93
2018-08-17T00:50:32.522Z,12.13
2018-08-17T00:53:01.775Z,12.37
2018-08-17T00:55:30.997Z,13.27
2018-08-17T00:58:00.267Z,11.90
2018-08-17T01:00:29.545Z,11.93
2018-08-17T01:02:58.522Z,12.80
2018-08-17T01:05:27.421Z,11.67
2018-08-17T01:07:56.555Z,11.67
2018-08-17T01:10:25.741Z,11.47
2018-08-17T01:12:54.883Z,12.10
2018-08-17T01:15:23.882Z,11.00
2018-08-17T01:17:52.934Z,11.33
2018-08-17T01:20:22.176Z,11.60
2018-08-17T01:22:51.051Z,11.83
2018-08-17T01:25:20.126Z,11.83
2018-08-17T01:27:49.358Z,11.43
2018-08-17T01:30:18.278Z,11.07
2018-08-17T01:32:47.543Z,11.17
2018-08-17T01:35:16.785Z,10.10
2018-08-17T01:37:46.042Z,10.53
2018-08-17T01:40:14.886Z,11.60
2018-08-17T01:42:44.136Z,11.37
2018-08-17T01:45:13.674Z,11.00
2018-08-17T01:47:42.627Z,11.20
2018-08-17T01:50:11.750Z,11.77
2018-08-17T01:52:40.902Z,12.03
2018-08-17T01:55:11.346Z,10.50
2018-08-17T01:57:40.478Z,10.67
2018-08-17T02:00:10.793Z,12.03
2018-08-17T02:02:41.389Z,9.83
2018-08-17T02:05:11.318Z,8.70
2018-08-17T02:07:40.327Z,8.23
2018-08-17T02:10:11.174Z,9.23
2018-08-17T02:12:40.616Z,10.90
2018-08-17T02:15:09.663Z,10.90
2018-08-17T02:17:38.713Z,11.43
2018-08-17T02:20:07.884Z,9.67
2018-08-17T02:22:37.054Z,9.40
2018-08-17T02:25:06.307Z,10.53
2018-08-17T02:27:35.114Z,8.37
2018-08-17T02:30:04.383Z,7.63
2018-08-17T02:32:33.447Z,6.77
2018-08-17T02:35:02.560Z,8.00
2018-08-17T02:37:31.639Z,6.97
2018-08-17T02:40:00.826Z,7.07
2018-08-17T02:42:29.942Z,7.80
2018-08-17T02:44:58.833Z,6.87
2018-08-17T02:47:27.955Z,6.43
2018-08-17T02:49:56.997Z,6.97
2018-08-17T02:52:26.029Z,6.93
2018-08-17T02:54:55.142Z,7.77
2018-08-17T02:57:24.404Z,7.57
2018-08-17T02:59:53.272Z,7.33
2018-08-17T03:02:22.110Z,7.20
2018-08-17T03:04:51.363Z,7.43
2018-08-17T03:07:20.477Z,7.30
2018-08-17T03:09:49.694Z,7.60
2018-08-17T03:12:18.746Z,7.50
2018-08-17T03:14:47.839Z,7.30
2018-08-17T03:17:17.032Z,7.30
2018-08-17T03:19:45.830Z,8.37
2018-08-17T03:22:14.858Z,8.10
2018-08-17T03:24:43.863Z,7.27
2018-08-17T03:27:13.234Z,7.90
2018-08-17T03:29:42.374Z,7.93
2018-08-17T03:32:11.534Z,8.07
2018-08-17T03:34:40.322Z,7.73
2018-08-17T03:37:09.203Z,7.60
2018-08-17T03:39:38.294Z,7.53
2018-08-17T03:42:07.614Z,7.53
2018-08-17T03:44:36.702Z,7.40
2018-08-17T03:47:06.666Z,7.60
2018-08-17T03:49:35.906Z,8.13
2018-08-17T03:52:05.159Z,7.77
2018-08-17T03:54:33.965Z,8.07
2018-08-17T03:57:03.186Z,9.00
2018-08-17T03:59:32.397Z,8.77
2018-08-17T04:02:01.638Z,9.23
2018-08-17T04:04:31.934Z,9.17
2018-08-17T04:07:01.076Z,8.37
2018-08-17T04:09:30.254Z,8.93
2018-08-17T04:11:59.391Z,8.37
2018-08-17T04:14:28.086Z,8.80
2018-08-17T04:16:57.180Z,8.90
2018-08-17T04:19:26.335Z,8.97
2018-08-17T04:21:55.579Z,8.33
2018-08-17T04:24:24.613Z,8.93
2018-08-17T04:26:53.735Z,8.70
2018-08-17T04:29:22.914Z,9.50
2018-08-17T04:31:51.984Z,9.40
2018-08-17T04:34:21.011Z,9.13
2018-08-17T04:36:50.345Z,9.20
2018-08-17T04:39:19.294Z,9.77
2018-08-17T04:41:48.478Z,8.60
2018-08-17T04:44:17.615Z,8.10
2018-08-17T04:46:46.870Z,8.67
2018-08-17T04:49:15.708Z,7.63
2018-08-17T04:51:44.855Z,7.30
2018-08-17T04:54:13.994Z,7.67
2018-08-17T04:56:43.140Z,8.10
2018-08-17T04:59:12.290Z,8.63
2018-08-17T05:01:41.323Z,8.67
2018-08-17T05:04:10.670Z,8.07
2018-08-17T05:06:39.516Z,8.00
2018-08-17T05:09:08.610Z,8.63
2018-08-17T05:11:37.351Z,8.40
2018-08-17T05:14:06.480Z,6.90
2018-08-17T05:16:35.535Z,6.70
2018-08-17T05:19:04.678Z,6.33
2018-08-17T05:21:33.855Z,5.60
2018-08-17T05:24:02.668Z,5.87
2018-08-17T05:26:31.898Z,6.13
2018-08-17T05:29:00.874Z,6.17
2018-08-17T05:31:30.186Z,5.70
2018-08-17T05:33:59.356Z,6.30
2018-08-17T05:36:28.683Z,6.37
2018-08-17T05:38:57.587Z,6.30
2018-08-17T05:41:26.526Z,6.63
2018-08-17T05:43:55.678Z,6.87
2018-08-17T05:46:24.805Z,6.10
2018-08-17T05:48:54.437Z,7.00
2018-08-17T05:51:23.432Z,6.10
2018-08-17T05:53:52.408Z,6.37
2018-08-17T05:56:21.373Z,7.03
2018-08-17T05:58:50.574Z,6.13
2018-08-17T06:01:20.114Z,6.00
2018-08-17T06:03:49.101Z,5.70
2018-08-17T06:06:17.856Z,5.63
2018-08-17T06:08:47.205Z,5.50
2018-08-17T06:11:16.523Z,6.00
2018-08-17T06:13:45.298Z,5.43
2018-08-17T06:16:14.434Z,5.33
2018-08-17T06:18:43.250Z,5.30
2018-08-17T06:21:12.245Z,5.03
2018-08-17T06:23:41.365Z,4.97
2018-08-17T06:26:10.669Z,5.73
2018-08-17T06:28:39.891Z,5.37
2018-08-17T06:31:08.771Z,5.30
2018-08-17T06:33:37.658Z,5.37
2018-08-17T06:36:06.990Z,5.20
2018-08-17T06:38:36.128Z,4.73
2018-08-17T06:41:05.242Z,5.37
2018-08-17T06:43:34.516Z,5.50
2018-08-17T06:46:03.596Z,4.63
2018-08-17T06:48:32.583Z,4.60
2018-08-17T06:51:01.890Z,5.07
2018-08-17T06:53:31.194Z,5.40
2018-08-17T06:56:00.450Z,5.57
2018-08-17T06:58:29.672Z,4.97
2018-08-17T07:00:58.723Z,5.13
2018-08-17T07:03:27.907Z,4.93
2018-08-17T07:05:57.070Z,4.90
2018-08-17T07:08:26.086Z,5.50
2018-08-17T07:10:55.419Z,5.10
2018-08-17T07:13:24.550Z,4.70
2018-08-17T07:15:53.596Z,5.40
2018-08-17T07:18:22.834Z,4.97
2018-08-17T07:20:52.213Z,4.80
2018-08-17T07:23:21.450Z,4.53
2018-08-17T07:25:50.581Z,4.87
2018-08-17T07:28:19.463Z,4.73
2018-08-17T07:30:48.614Z,5.37
2018-08-17T07:33:17.650Z,5.00
2018-08-17T07:35:46.865Z,4.63
2018-08-17T07:38:16.038Z,4.73
2018-08-17T07:40:45.112Z,4.33
2018-08-17T07:43:14.337Z,4.73
2018-08-17T07:45:43.750Z,4.53
2018-08-17T07:48:13.108Z,4.93
2018-08-17T07:50:42.166Z,4.63
2018-08-17T07:53:11.283Z,5.00
2018-08-17T07:55:40.376Z,4.50
2018-08-17T07:58:09.515Z,5.03
2018-08-17T08:00:38.678Z,4.80
2018-08-17T08:03:07.678Z,5.00
2018-08-17T08:05:36.820Z,4.57
2018-08-17T08:08:05.921Z,4.80
2018-08-17T08:10:34.798Z,4.67
2018-08-17T08:13:03.549Z,5.00
2018-08-17T08:15:32.479Z,4.80
2018-08-17T08:18:01.807Z,4.70
2018-08-17T08:20:34.954Z,4.90
2018-08-17T08:23:14.910Z,4.80
2018-08-17T08:25:43.741Z,4.57
2018-08-17T08:28:12.739Z,5.00
2018-08-17T08:30:41.603Z,5.10
2018-08-17T08:33:10.713Z,4.83
2018-08-17T08:35:39.936Z,4.93
2018-08-17T08:38:09.218Z,4.53
2018-08-17T08:40:38.167Z,4.50
2018-08-17T08:43:08.059Z,4.43
2018-08-17T08:45:37.487Z,4.73
2018-08-17T08:48:08.017Z,4.47
2018-08-17T08:50:37.054Z,4.10
2018-08-17T08:53:06.519Z,3.90
2018-08-17T08:55:35.735Z,3.77
2018-08-17T08:58:04.949Z,3.67
2018-08-17T09:00:34.256Z,3.83
2018-08-17T09:03:03.528Z,3.70
2018-08-17T09:05:32.537Z,3.57
2018-08-17T09:08:01.589Z,3.60
2018-08-17T09:10:30.919Z,3.83
2018-08-17T09:13:00.070Z,3.70
2018-08-17T09:15:29.118Z,3.65
2018-08-17T09:17:58.410Z,4.28
2018-08-17T09:20:27.311Z,3.58
2018-08-17T09:22:56.190Z,3.52
2018-08-17T09:25:25.397Z,3.52
2018-08-17T09:27:54.503Z,3.50
2018-08-17T09:30:23.731Z,3.77
2018-08-17T09:32:53.090Z,3.95
2018-08-17T09:35:22.170Z,3.60
2018-08-17T09:37:51.251Z,2.90
2018-08-17T09:40:20.474Z,3.40
2018-08-17T09:42:49.530Z,3.52
2018-08-17T09:45:18.583Z,3.40
2018-08-17T09:47:47.668Z,3.90
2018-08-17T09:50:16.811Z,3.58
2018-08-17T09:52:45.782Z,3.22
2018-08-17T09:55:15.069Z,3.55
2018-08-17T09:57:44.068Z,3.45
2018-08-17T10:00:13.214Z,3.27
2018-08-17T10:02:47.218Z,3.75
2018-08-17T10:05:21.336Z,3.65
2018-08-17T10:07:55.629Z,3.50
2018-08-17T10:10:25.526Z,3.37
2018-08-17T10:12:54.558Z,3.42
2018-08-17T10:15:24.350Z,3.45
2018-08-17T10:17:53.412Z,3.15
2018-08-17T10:20:23.604Z,3.90
2018-08-17T10:22:52.739Z,3.52
2018-08-17T10:25:23.106Z,3.37
2018-08-17T10:27:53.330Z,3.40
2018-08-17T10:30:23.339Z,3.40
2018-08-17T10:32:58.422Z,3.65
2018-08-17T10:35:35.008Z,3.77
2018-08-17T10:38:05.138Z,3.25
2018-08-17T10:40:34.214Z,3.45
2018-08-17T10:43:04.636Z,3.25
2018-08-17T10:45:33.980Z,3.87
2018-08-17T10:48:03.167Z,3.30
2018-08-17T10:50:33.378Z,3.72
2018-08-17T10:53:03.402Z,3.47
2018-08-17T10:55:41.714Z,3.33
2018-08-17T10:58:13.385Z,3.47
2018-08-17T11:00:42.440Z,3.65
2018-08-17T11:03:12.038Z,4.45
2018-08-17T11:05:41.178Z,4.08
2018-08-17T11:08:10.386Z,3.60
2018-08-17T11:10:39.463Z,3.62
2018-08-17T11:13:08.603Z,3.55
2018-08-17T11:15:37.910Z,3.85
2018-08-17T11:18:07.461Z,3.58
2018-08-17T11:20:36.576Z,3.77
2018-08-17T11:23:05.886Z,3.75
2018-08-17T11:25:35.151Z,3.92
2018-08-17T11:28:04.237Z,3.80
2018-08-17T11:30:33.214Z,3.67
2018-08-17T11:33:02.134Z,3.75
2018-08-17T11:35:31.347Z,4.22
2018-08-17T11:38:00.471Z,4.10
2018-08-17T11:40:29.423Z,3.85
2018-08-17T11:42:58.509Z,4.00
2018-08-17T11:45:28.135Z,4.25
2018-08-17T11:47:58.096Z,3.52
2018-08-17T11:50:27.585Z,4.00
2018-08-17T11:52:59.056Z,4.12
2018-08-17T11:55:29.772Z,3.60
2018-08-17T11:57:59.035Z,3.70
2018-08-17T12:00:32.710Z,4.47
2018-08-17T12:03:01.929Z,4.45
2018-08-17T12:05:30.611Z,4.50
2018-08-17T12:07:59.734Z,4.03
2018-08-17T12:10:28.660Z,3.70
2018-08-17T12:13:03.723Z,4.45
2018-08-17T12:15:37.000Z,3.30
2018-08-17T12:18:06.138Z,3.60
2018-08-17T12:20:35.109Z,3.30
2018-08-17T12:23:03.990Z,4.00
2018-08-17T12:25:34.114Z,4.00
2018-08-17T12:28:03.357Z,3.67
2018-08-17T12:30:32.640Z,3.97
2018-08-17T12:33:01.431Z,4.03
2018-08-17T12:35:30.538Z,3.80
2018-08-17T12:38:04.859Z,4.07
2018-08-17T12:40:37.788Z,3.53
2018-08-17T12:43:06.595Z,3.70
2018-08-17T12:45:35.579Z,3.37
2018-08-17T12:48:04.752Z,3.25
2018-08-17T12:50:33.911Z,3.50
2018-08-17T12:53:02.947Z,3.65
2018-08-17T12:55:32.209Z,3.42
2018-08-17T12:58:01.384Z,3.52
2018-08-17T13:00:30.294Z,3.52
2018-08-17T13:02:59.330Z,3.40
2018-08-17T13:05:28.411Z,3.60
2018-08-17T13:07:57.474Z,3.45
2018-08-17T13:10:26.677Z,3.55
2018-08-17T13:13:00.458Z,3.22
2018-08-17T13:15:29.436Z,4.83
2018-08-17T13:17:59.139Z,3.97
2018-08-17T13:20:28.221Z,4.23
2018-08-17T13:22:57.167Z,4.20
2018-08-17T13:25:25.979Z,3.80
2018-08-17T13:27:55.089Z,4.07
2018-08-17T13:30:24.236Z,3.60
2018-08-17T13:32:53.160Z,4.30
2018-08-17T13:35:22.377Z,4.00
2018-08-17T13:37:51.355Z,3.63
2018-08-17T13:40:20.357Z,4.17
2018-08-17T13:42:49.484Z,3.30
2018-08-17T13:45:18.626Z,3.37
2018-08-17T13:47:47.845Z,3.20
2018-08-17T13:50:16.542Z,3.80
2018-08-17T13:52:45.751Z,3.70
2018-08-17T13:55:14.599Z,4.13
2018-08-17T13:57:43.744Z,4.13
2018-08-17T14:00:13.035Z,3.80
2018-08-17T14:02:42.339Z,3.73
2018-08-17T14:05:11.979Z,4.87
2018-08-17T14:07:41.196Z,4.00
2018-08-17T14:10:11.452Z,4.60
2018-08-17T14:12:40.579Z,3.80
2018-08-17T14:15:10.237Z,4.67
2018-08-17T14:17:39.520Z,4.03
2018-08-17T14:20:12.455Z,4.10
2018-08-17T14:22:41.658Z,4.13
2018-08-17T14:25:10.884Z,3.97
2018-08-17T14:27:40.070Z,4.77
2018-08-17T14:30:15.705Z,4.20
2018-08-17T14:32:44.965Z,3.90
2018-08-17T14:35:14.253Z,4.00
2018-08-17T14:37:43.343Z,3.77
2018-08-17T14:40:12.260Z,4.23
2018-08-17T14:42:41.421Z,4.47
2018-08-17T14:45:11.249Z,4.13
2018-08-17T14:47:40.376Z,4.10
2018-08-17T14:50:11.673Z,3.90
2018-08-17T14:52:40.972Z,4.23
2018-08-17T14:55:10.341Z,4.07
2018-08-17T14:57:39.587Z,4.27
2018-08-17T15:00:10.703Z,4.10
2018-08-17T15:02:39.837Z,4.47
2018-08-17T15:05:10.643Z,4.40
2018-08-17T15:07:39.900Z,4.07
2018-08-17T15:10:10.783Z,4.40
2018-08-17T15:12:40.237Z,4.37
2018-08-17T15:15:10.412Z,4.33
2018-08-17T15:17:39.776Z,4.27
2018-08-17T15:20:10.167Z,4.27
2018-08-17T15:22:39.363Z,4.37
2018-08-17T15:25:08.500Z,4.20
2018-08-17T15:27:37.488Z,4.30
2018-08-17T15:30:08.654Z,4.10
2018-08-17T15:32:37.590Z,4.03
2018-08-17T15:35:06.959Z,3.93
2018-08-17T15:37:36.192Z,4.03
2018-08-17T15:40:06.340Z,4.37
2018-08-17T15:42:35.374Z,4.37
2018-08-17T15:45:04.518Z,4.33
2018-08-17T15:47:34.675Z,4.57
2018-08-17T15:50:09.769Z,3.77
2018-08-17T15:52:39.004Z,3.73
2018-08-17T15:55:07.860Z,3.80
2018-08-17T15:57:36.865Z,3.67
2018-08-17T16:00:07.486Z,3.97
2018-08-17T16:02:36.611Z,3.70
2018-08-17T16:05:06.342Z,4.10
2018-08-17T16:07:35.585Z,3.93
2018-08-17T16:10:05.022Z,3.80
2018-08-17T16:12:33.962Z,4.00
2018-08-17T16:15:03.051Z,4.17
2018-08-17T16:17:32.327Z,4.37
2018-08-17T16:20:01.347Z,4.20
2018-08-17T16:22:30.494Z,4.30
2018-08-17T16:24:59.780Z,4.50
2018-08-17T16:27:29.072Z,4.93
2018-08-17T16:29:58.340Z,4.63
2018-08-17T16:32:27.351Z,4.73
2018-08-17T16:34:56.362Z,4.47
2018-08-17T16:37:25.571Z,5.00
2018-08-17T16:39:55.627Z,5.10
2018-08-17T16:42:29.658Z,5.13
2018-08-17T16:44:58.809Z,4.67
2018-08-17T16:47:27.634Z,4.60
2018-08-17T16:49:57.094Z,4.60
2018-08-17T16:52:26.347Z,4.70
2018-08-17T16:54:55.497Z,4.93
2018-08-17T16:57:24.677Z,4.90
2018-08-17T16:59:53.654Z,4.60
2018-08-17T17:02:22.846Z,5.30
2018-08-17T17:04:51.917Z,5.30
2018-08-17T17:07:21.327Z,5.00
2018-08-17T17:09:50.440Z,4.03
2018-08-17T17:12:20.681Z,4.30
2018-08-17T17:14:49.957Z,4.07
2018-08-17T17:17:19.146Z,5.40
2018-08-17T17:19:48.246Z,4.60
2018-08-17T17:22:17.442Z,4.60
2018-08-17T17:24:46.189Z,5.37
2018-08-17T17:27:19.652Z,4.80
2018-08-17T17:29:48.893Z,5.03
2018-08-17T17:32:17.854Z,4.23
2018-08-17T17:34:46.996Z,4.87
2018-08-17T17:37:16.026Z,4.47
2018-08-17T17:39:44.906Z,5.03
2018-08-17T17:42:14.086Z,5.20
2018-08-17T17:44:43.225Z,4.87
2018-08-17T17:47:12.174Z,4.60
2018-08-17T17:49:41.056Z,4.63
2018-08-17T17:52:10.306Z,4.47
2018-08-17T17:54:39.347Z,4.37
2018-08-17T17:57:09.266Z,5.03
2018-08-17T17:59:45.063Z,4.80
2018-08-17T18:02:14.070Z,4.77
2018-08-17T18:04:43.157Z,4.77
2018-08-17T18:07:12.264Z,4.70
2018-08-17T18:09:41.306Z,4.63
2018-08-17T18:12:10.502Z,4.23
2018-08-17T18:14:39.686Z,4.73
2018-08-17T18:17:09.450Z,4.90
2018-08-17T18:19:38.338Z,4.93
2018-08-17T18:22:08.505Z,4.90
2018-08-17T18:24:37.708Z,4.90
2018-08-17T18:27:06.845Z,5.03
2018-08-17T18:29:35.902Z,4.80
2018-08-17T18:32:05.229Z,4.90
2018-08-17T18:34:34.252Z,4.90
2018-08-17T18:37:03.082Z,4.87
2018-08-17T18:39:32.220Z,4.63
2018-08-17T18:42:01.285Z,4.37
2018-08-17T18:44:30.156Z,4.83
2018-08-17T18:46:59.271Z,4.97
2018-08-17T18:49:27.957Z,4.70
2018-08-17T18:51:56.990Z,4.70
2018-08-17T18:54:25.820Z,4.77
2018-08-17T18:56:54.999Z,4.27
2018-08-17T18:59:24.196Z,4.60
2018-08-17T19:01:53.147Z,4.93
2018-08-17T19:04:21.950Z,4.80
2018-08-17T19:06:50.721Z,4.60
2018-08-17T19:09:19.861Z,4.30
2018-08-17T19:11:48.611Z,4.60
2018-08-17T19:14:17.748Z,5.07
2018-08-17T19:16:46.894Z,4.57
2018-08-17T19:19:15.996Z,4.70
2018-08-17T19:21:45.219Z,5.30
2018-08-17T19:24:14.150Z,4.80
2018-08-17T19:26:43.081Z,5.03
2018-08-17T19:29:12.444Z,4.70
2018-08-17T19:32:14.468Z,4.50
2018-08-17T19:34:43.524Z,4.60
2018-08-17T19:37:12.785Z,4.43
2018-08-17T19:39:45.039Z,4.67
2018-08-17T19:42:14.162Z,5.00
2018-08-17T19:44:43.464Z,5.77
2018-08-17T19:47:12.671Z,4.43
2018-08-17T19:49:41.367Z,4.97
2018-08-17T19:52:10.212Z,5.10
2018-08-17T19:54:39.198Z,5.30
2018-08-17T19:57:08.491Z,4.77
2018-08-17T19:59:37.335Z,4.90
2018-08-17T20:02:06.617Z,4.90
2018-08-17T20:04:35.702Z,4.50
2018-08-17T20:07:04.874Z,4.50
2018-08-17T20:09:33.561Z,5.30
2018-08-17T20:12:02.608Z,4.30
2018-08-17T20:14:32.610Z,4.83
2018-08-17T20:17:01.744Z,4.77
2018-08-17T20:19:36.497Z,5.10
2018-08-17T20:22:05.642Z,4.63
2018-08-17T20:24:34.588Z,4.97
2018-08-17T20:27:03.422Z,4.47
2018-08-17T20:29:32.416Z,5.17
2018-08-17T20:32:01.496Z,4.80
2018-08-17T20:34:30.687Z,4.70
2018-08-17T20:36:59.979Z,4.93
2018-08-17T20:39:28.798Z,4.60
2018-08-17T20:41:57.975Z,5.20
2018-08-17T20:44:27.063Z,5.33
2018-08-17T20:46:56.326Z,4.77
2018-08-17T20:49:25.543Z,4.80
2018-08-17T20:51:58.854Z,4.70
2018-08-17T20:54:28.605Z,5.20
2018-08-17T20:56:58.040Z,4.97
2018-08-17T20:59:27.167Z,4.70
2018-08-17T21:01:56.242Z,5.33
2018-08-17T21:04:25.455Z,5.10
2018-08-17T21:06:54.304Z,4.63
2018-08-17T21:09:23.416Z,4.60
2018-08-17T21:11:52.671Z,4.83
2018-08-17T21:14:21.914Z,4.83
2018-08-17T21:16:51.102Z,4.80
2018-08-17T21:19:35.056Z,4.87
2018-08-17T21:22:04.364Z,4.60
2018-08-17T21:24:33.213Z,4.90
2018-08-17T21:27:02.855Z,4.53
2018-08-17T21:29:32.115Z,4.70
2018-08-17T21:32:01.234Z,4.70
2018-08-17T21:34:30.070Z,4.40
2018-08-17T21:36:59.078Z,4.90
2018-08-17T21:39:28.078Z,4.70
2018-08-17T21:41:57.270Z,4.80
2018-08-17T21:44:26.362Z,4.80
2018-08-17T21:47:03.094Z,5.50
2018-08-17T21:49:32.551Z,4.60
2018-08-17T21:52:03.328Z,4.87
2018-08-17T21:54:33.607Z,5.10
2018-08-17T21:57:03.698Z,5.03
2018-08-17T21:59:37.950Z,4.67
2018-08-17T22:02:09.210Z,4.90
2018-08-17T22:04:38.177Z,4.80
2018-08-17T22:07:12.184Z,5.03
2018-08-17T22:09:42.667Z,4.97
2018-08-17T22:12:12.662Z,5.67
2018-08-17T22:14:41.594Z,4.90
2018-08-17T22:17:21.710Z,5.13
2018-08-17T22:19:50.583Z,5.17
2018-08-17T22:22:19.781Z,4.97
2018-08-17T22:24:53.722Z,4.80
2018-08-17T22:27:22.999Z,5.23
2018-08-17T22:29:54.172Z,4.73
2018-08-17T22:32:23.738Z,4.90
2018-08-17T22:34:53.042Z,5.10
2018-08-17T22:37:21.938Z,4.83
2018-08-17T22:39:51.122Z,5.40
2018-08-17T22:42:22.497Z,4.80
2018-08-17T22:44:52.130Z,5.10
2018-08-17T22:47:24.599Z,4.63
2018-08-17T22:49:55.138Z,5.03
2018-08-17T22:52:24.346Z,4.90
2018-08-17T22:55:01.468Z,4.77
2018-08-17T22:57:31.434Z,5.60
2018-08-17T23:00:15.729Z,5.00
2018-08-17T23:02:45.460Z,5.53
2018-08-17T23:05:16.463Z,5.53
2018-08-17T23:07:45.740Z,5.50
2018-08-17T23:10:17.105Z,5.23
2018-08-17T23:12:47.314Z,6.00
2018-08-17T23:15:16.652Z,5.23
2018-08-17T23:17:47.288Z,5.50
2018-08-17T23:20:17.183Z,5.50
2018-08-17T23:22:51.489Z,5.67
2018-08-17T23:25:20.665Z,6.37
2018-08-17T23:27:50.523Z,6.10
2018-08-17T23:30:19.728Z,5.50
2018-08-17T23:32:49.159Z,5.97
2018-08-17T23:35:18.391Z,5.63
2018-08-17T23:37:47.429Z,5.70
2018-08-17T23:40:16.505Z,6.17
2018-08-17T23:42:45.635Z,6.10
2018-08-17T23:45:16.075Z,5.50
2018-08-17T23:47:45.310Z,5.40
2018-08-17T23:50:15.440Z,6.07
2018-08-17T23:52:44.888Z,5.87
2018-08-17T23:55:15.965Z,6.20
2018-08-17T23:57:45.175Z,6.10
